aviador You're here:

RPLB Decoded Metar

OLONGAPO/SUBIC in PHILIPPINES
Report Time2017-08-22 16:00:00
UTC Time2017-08-22 16:44:48
Flight Rules vfr VFR
Wind170° at 06 kt
W.Decomp.*RWY 25: 1.1 kt HW 5.9 kt LCW
W.Rank170° ranks 19
Current wind is above 170° avg. (5.6)
Visibility9999 m
Phenomena:N/A
Clouds:Few 018 Hf
Scattered 080 Hf
Expected CloudBase > 1,200 ft AGL from Temp-Dew spread
CeilingNone
Temp27°C (ISA +12)
Dew Point24°C (84% RH)
Heat Index30.1°C
QNH1006 hPa
Density Alt2,080 ft
Elevation56 ft
Report Wrong Elevation
Raw Report
METAR RPLB 221600Z 17006KT 9999 FEW018 SCT080 27/24 Q1006 RMK A2971=

Extra information for RPLB:More info

Metar Taf Metar & Taf Last 4 Metars F.Rules Stats Wind Profile Meteogram Temp Stats Airport Information Weather charts Add Link Nearby VenuesMetar ALERT Operation Metar Decoded Social comments